Time;durP1;ratioP1;P1;durP2;ratioP2;P2;SDS_P1;SDS_P2;PMS_P1;PMS_P2;Temp;Humidity;BMP_temperature;BMP_pressure;BME280_temperature;BME280_humidity;BME280_pressure;Samples;Min_cycle;Max_cycle;Signal;HPM_P1;HPM_P2
2021/11/12 00:13:31;;;;;;;35.38;17.38;;;10.70;99.90;;;;;;4884158;29;20077;-85
2021/11/12 00:16:02;;;;;;;40.72;18.77;;;10.70;99.90;;;;;;4867672;29;20479;-85
2021/11/12 00:18:30;;;;;;;52.22;18.52;;;10.70;99.90;;;;;;4881371;29;20033;-86
2021/11/12 00:20:59;;;;;;;40.55;19.50;;;10.60;99.90;;;;;;4883795;29;20064;-86
2021/11/12 00:23:27;;;;;;;45.65;20.05;;;10.60;99.90;;;;;;4867846;29;20036;-86
2021/11/12 00:25:54;;;;;;;40.67;19.33;;;10.60;99.90;;;;;;4867001;29;20037;-85
2021/11/12 00:28:23;;;;;;;49.97;21.38;;;10.60;99.90;;;;;;4856014;29;20080;-85
2021/11/12 00:31:11;;;;;;;50.88;20.45;;;10.60;99.90;;;;;;4866881;29;20112;-86
2021/11/12 00:38:43;;;;;;;55.45;22.13;;;10.60;99.90;;;;;;4885675;29;20041;-85
2021/11/12 00:43:55;;;;;;;43.88;20.30;;;10.50;99.90;;;;;;4883287;29;20460;-85
2021/11/12 00:46:33;;;;;;;44.53;22.48;;;10.50;99.90;;;;;;4882559;29;20084;-85
2021/11/12 00:49:03;;;;;;;58.15;24.23;;;10.50;99.90;;;;;;4872216;29;20415;-85
2021/11/12 00:51:38;;;;;;;59.00;23.23;;;10.40;99.90;;;;;;4868042;29;20453;-85
2021/11/12 00:56:30;;;;;;;68.03;23.98;;;10.50;99.90;;;;;;4881299;29;20033;-85
2021/11/12 00:58:59;;;;;;;54.33;23.17;;;10.40;99.90;;;;;;4865088;29;20025;-85
2021/11/12 01:01:27;;;;;;;55.88;22.33;;;10.30;99.90;;;;;;4866521;29;20582;-84
2021/11/12 01:03:54;;;;;;;49.70;21.73;;;10.40;99.90;;;;;;4867228;29;20024;-85
2021/11/12 01:06:21;;;;;;;54.38;22.95;;;10.40;99.90;;;;;;4866037;29;20029;-85
2021/11/12 01:08:47;;;;;;;52.80;23.13;;;10.50;99.90;;;;;;4865492;29;20547;-85
2021/11/12 01:11:15;;;;;;;51.90;23.63;;;10.50;99.90;;;;;;4865621;29;20036;-84
2021/11/12 01:13:41;;;;;;;;;;;10.40;99.90;;;;;;4865714;29;20562;-84
2021/11/12 01:16:07;;;;;;;52.72;23.10;;;10.40;99.90;;;;;;4870107;29;19912;-84
2021/11/12 01:18:36;;;;;;;51.78;23.25;;;10.40;99.90;;;;;;4864981;29;20494;-83
2021/11/12 01:21:04;;;;;;;55.97;22.50;;;10.50;99.90;;;;;;4881080;29;20498;-84
2021/11/12 01:23:30;;;;;;;46.55;21.02;;;10.50;99.90;;;;;;4857688;29;20025;-84
2021/11/12 01:25:56;;;;;;;50.17;23.00;;;10.40;99.90;;;;;;4865326;29;20033;-84
2021/11/12 01:28:22;;;;;;;50.92;21.80;;;10.40;99.90;;;;;;4879421;29;20055;-84
2021/11/12 01:30:47;;;;;;;59.50;23.33;;;10.40;99.90;;;;;;4865117;29;20135;-84
2021/11/12 01:33:13;;;;;;;49.70;22.13;;;10.40;99.90;;;;;;4867532;29;20068;-86
2021/11/12 01:35:39;;;;;;;59.65;22.90;;;10.40;99.90;;;;;;4866327;29;20048;-85
2021/11/12 01:38:05;;;;;;;60.65;24.23;;;10.40;99.90;;;;;;4864854;29;20065;-85
2021/11/12 01:40:31;;;;;;;44.65;20.63;;;10.40;99.90;;;;;;4865334;29;20058;-85
2021/11/12 01:43:00;;;;;;;52.80;22.73;;;10.40;99.90;;;;;;4863724;29;20431;-85
2021/11/12 01:45:44;;;;;;;45.58;21.10;;;10.40;99.90;;;;;;4854351;29;20033;-86
2021/11/12 01:51:04;;;;;;;52.95;22.20;;;10.40;99.90;;;;;;4852335;29;20053;-85
2021/11/12 01:53:38;;;;;;;55.55;22.25;;;10.30;99.90;;;;;;4824686;29;20039;-86
2021/11/12 02:01:22;;;;;;;48.97;22.23;;;10.40;99.90;;;;;;4834029;29;20098;-84
2021/11/12 02:03:49;;;;;;;45.30;20.58;;;10.40;99.90;;;;;;4835752;29;20041;-86
2021/11/12 02:06:18;;;;;;;54.05;22.55;;;10.30;99.90;;;;;;4841149;29;20037;-81
2021/11/12 02:08:45;;;;;;;49.55;22.17;;;10.30;99.90;;;;;;4852797;29;20537;-82
2021/11/12 02:11:11;;;;;;;49.75;22.08;;;10.30;99.90;;;;;;4853341;29;20511;-81
2021/11/12 02:13:37;;;;;;;45.55;20.30;;;10.30;99.90;;;;;;4840940;29;20030;-81
2021/11/12 02:16:06;;;;;;;44.47;21.67;;;10.30;99.90;;;;;;4840786;29;20050;-82
2021/11/12 02:18:36;;;;;;;46.05;20.05;;;10.30;99.90;;;;;;4825679;29;20527;-82
2021/11/12 02:21:11;;;;;;;42.05;20.70;;;10.30;99.90;;;;;;4851228;29;20052;-82
2021/11/12 02:26:18;;;;;;;49.30;22.25;;;10.30;99.90;;;;;;4879228;29;20037;-81
2021/11/12 02:28:46;;;;;;;44.95;20.42;;;10.30;99.90;;;;;;4879409;29;20483;-81
2021/11/12 02:31:12;;;;;;;53.92;21.48;;;10.40;99.90;;;;;;4862934;29;20025;-82
2021/11/12 02:33:38;;;;;;;51.03;22.25;;;10.40;99.90;;;;;;4879755;29;20037;-82
2021/11/12 02:36:10;;;;;;;49.53;21.00;;;10.40;99.90;;;;;;4879670;29;20045;-81
2021/11/12 02:38:40;;;;;;;42.65;20.63;;;10.40;99.90;;;;;;4862872;29;20074;-82
2021/11/12 02:41:06;;;;;;;46.45;20.45;;;10.40;99.90;;;;;;4864007;29;20033;-81
2021/11/12 02:43:33;;;;;;;54.90;21.52;;;10.40;99.90;;;;;;4867783;29;20033;-82
2021/11/12 02:46:01;;;;;;;44.92;21.42;;;10.30;99.90;;;;;;4872250;29;20043;-81
2021/11/12 02:48:28;;;;;;;42.22;20.55;;;10.40;99.90;;;;;;4875462;29;20025;-82
2021/11/12 02:50:55;;;;;;;46.38;19.35;;;10.30;99.90;;;;;;4877652;29;20029;-80
2021/11/12 02:53:23;;;;;;;44.50;20.50;;;10.30;99.90;;;;;;4866681;29;20026;-83
2021/11/12 02:55:49;;;;;;;39.53;19.42;;;10.30;99.90;;;;;;4861900;29;20021;-81
2021/11/12 02:58:15;;;;;;;45.55;20.10;;;10.20;99.90;;;;;;4859406;29;20045;-82
2021/11/12 03:00:42;;;;;;;45.15;19.23;;;10.20;99.90;;;;;;4862184;29;20382;-82
2021/11/12 03:03:09;;;;;;;46.47;21.73;;;10.20;99.90;;;;;;4862687;29;20045;-81
2021/11/12 03:05:36;;;;;;;43.90;20.00;;;10.20;99.90;;;;;;4862122;29;20132;-82
2021/11/12 03:08:02;;;;;;;40.20;20.13;;;10.20;99.90;;;;;;4863221;29;20077;-81
2021/11/12 03:10:29;;;;;;;46.97;19.55;;;10.10;99.90;;;;;;4861656;29;20051;-83
2021/11/12 03:12:55;;;;;;;49.85;19.83;;;10.20;99.90;;;;;;4875812;29;20029;-82
2021/11/12 03:15:21;;;;;;;41.97;19.70;;;10.10;99.90;;;;;;4864018;29;20036;-83
2021/11/12 03:17:51;;;;;;;44.78;19.88;;;10.10;99.90;;;;;;4883032;29;20060;-81
2021/11/12 03:20:18;;;;;;;37.55;18.27;;;10.10;99.90;;;;;;4882671;29;20037;-81
2021/11/12 03:22:59;;;;;;;40.30;18.08;;;10.10;99.90;;;;;;4862536;29;20035;-83
2021/11/12 05:46:36;;;;;;;50.90;19.52;;;7.60;99.90;;;;;;4869776;29;20037;-82
2021/11/12 05:57:15;;;;;;;43.90;19.95;;;7.40;99.90;;;;;;4870526;29;20044;-81
2021/11/12 05:59:41;;;;;;;55.78;21.40;;;7.30;99.90;;;;;;4865404;29;20040;-83
2021/11/12 06:02:07;;;;;;;48.88;21.25;;;7.30;99.90;;;;;;4872418;29;20057;-83
2021/11/12 06:04:34;;;;;;;45.63;18.83;;;7.30;99.90;;;;;;4858175;29;20096;-82
2021/11/12 06:07:00;;;;;;;48.08;20.23;;;7.20;99.90;;;;;;4858056;29;20037;-81
2021/11/12 06:09:26;;;;;;;52.47;19.10;;;7.10;99.90;;;;;;4870306;29;20097;-81
2021/11/12 06:11:53;;;;;;;49.63;20.55;;;7.10;99.90;;;;;;4858670;29;20045;-81
2021/11/12 06:14:19;;;;;;;45.10;19.60;;;7.00;99.90;;;;;;4858540;29;20136;-81
2021/11/12 06:16:45;;;;;;;45.00;18.38;;;7.00;99.90;;;;;;4867515;29;20546;-82
2021/11/12 06:19:11;;;;;;;44.45;20.50;;;7.00;99.90;;;;;;4873539;29;20151;-81
2021/11/12 06:21:37;;;;;;;47.13;20.58;;;7.00;99.90;;;;;;4864023;29;20041;-81
2021/11/12 06:24:03;;;;;;;46.90;20.13;;;7.00;99.90;;;;;;4871504;29;20033;-81
2021/11/12 06:26:28;;;;;;;38.25;18.58;;;7.10;99.90;;;;;;4867135;29;20034;-81
2021/11/12 06:28:55;;;;;;;46.97;19.60;;;7.00;99.90;;;;;;4876441;29;20379;-81
2021/11/12 06:31:22;;;;;;;47.13;18.90;;;6.90;99.90;;;;;;4867574;29;20025;-81
2021/11/12 06:33:49;;;;;;;48.08;19.73;;;6.80;99.90;;;;;;4865610;29;20053;-81
2021/11/12 06:36:15;;;;;;;42.88;18.60;;;6.80;99.90;;;;;;4875115;29;20021;-81
2021/11/12 06:38:41;;;;;;;46.70;18.65;;;6.80;99.90;;;;;;4871274;29;20141;-81
2021/11/12 06:41:10;;;;;;;41.85;18.65;;;6.80;99.90;;;;;;4857188;29;20071;-80
2021/11/12 06:51:42;;;;;;;49.20;19.08;;;6.40;99.90;;;;;;4870726;29;20071;-79
2021/11/12 06:54:07;;;;;;;46.25;21.08;;;6.30;99.90;;;;;;4871620;29;20041;-81
2021/11/12 06:56:33;;;;;;;46.35;21.40;;;6.20;99.90;;;;;;4871770;29;20073;-80
2021/11/12 06:58:59;;;;;;;49.72;20.33;;;6.20;99.90;;;;;;4862287;29;20053;-80
2021/11/12 07:01:26;;;;;;;47.63;20.50;;;6.10;99.90;;;;;;4879659;29;20037;-81
2021/11/12 07:03:52;;;;;;;49.23;19.23;;;6.10;99.90;;;;;;4873404;29;20068;-81
2021/11/12 07:06:18;;;;;;;50.72;19.88;;;6.10;99.90;;;;;;4873160;29;20341;-80
2021/11/12 07:08:44;;;;;;;42.03;18.23;;;6.10;99.90;;;;;;4863953;29;20022;-81
2021/11/12 07:11:10;;;;;;;43.30;18.90;;;6.20;99.90;;;;;;4892645;29;20037;-81
2021/11/12 07:13:36;;;;;;;46.63;18.60;;;6.20;99.90;;;;;;4883093;29;20029;-80
2021/11/12 07:16:02;;;;;;;48.63;19.50;;;6.10;99.90;;;;;;4898886;29;20037;-80
2021/11/12 07:18:29;;;;;;;51.65;20.48;;;6.10;99.90;;;;;;4889559;29;20028;-82
2021/11/12 07:20:57;;;;;;;54.10;20.23;;;5.90;99.90;;;;;;4897024;29;20039;-81
2021/11/12 07:23:24;;;;;;;49.63;18.85;;;6.00;99.90;;;;;;4903878;29;20052;-82
2021/11/12 07:25:51;;;;;;;44.70;19.30;;;5.90;99.90;;;;;;4887295;29;20026;-84
2021/11/12 07:28:18;;;;;;;51.95;19.98;;;5.90;99.90;;;;;;4894062;29;20021;-83
2021/11/12 07:30:45;;;;;;;45.92;19.98;;;5.90;99.90;;;;;;4889448;29;20074;-83
2021/11/12 07:33:13;;;;;;;49.13;19.85;;;5.90;99.90;;;;;;4890273;29;20036;-82
2021/11/12 07:35:48;;;;;;;56.95;20.58;;;6.00;99.90;;;;;;4890926;29;20021;-81
2021/11/12 07:38:22;;;;;;;64.75;21.00;;;6.00;99.90;;;;;;4887036;29;20053;-81
2021/11/12 07:48:39;;;;;;;55.10;21.52;;;6.10;99.90;;;;;;4903479;29;20084;-82
2021/11/12 07:51:07;;;;;;;58.58;22.50;;;6.00;99.90;;;;;;4891368;29;20048;-80
2021/11/12 07:53:33;;;;;;;57.35;23.52;;;6.00;99.90;;;;;;4866107;29;20034;-81
2021/11/12 07:55:58;;;;;;;66.25;22.92;;;6.10;99.90;;;;;;4863956;29;20029;-81
2021/11/12 07:58:24;;;;;;;64.55;22.15;;;6.00;99.90;;;;;;4880161;29;20575;-81
2021/11/12 08:00:50;;;;;;;65.35;22.30;;;6.00;99.90;;;;;;4881447;29;20029;-80
2021/11/12 08:03:17;;;;;;;65.03;22.80;;;6.10;99.90;;;;;;4877112;29;20025;-80
2021/11/12 08:05:46;;;;;;;60.10;22.40;;;6.10;99.90;;;;;;4876209;29;20399;-80
2021/11/12 08:08:15;;;;;;;70.13;22.73;;;6.20;99.90;;;;;;4866047;29;20045;-81
2021/11/12 08:10:52;;;;;;;66.45;22.90;;;6.30;99.90;;;;;;4882549;29;20069;-82
2021/11/12 08:35:28;;;;;;;63.65;21.98;;;6.50;99.90;;;;;;4882905;29;20582;-84
2021/11/12 08:42:39;;;;;;;71.15;24.23;;;6.50;99.90;;;;;;4881852;29;20070;-82
2021/11/12 08:45:31;;;;;;;72.00;22.10;;;6.50;99.90;;;;;;4865275;29;20131;-80
2021/11/12 08:47:57;;;;;;;67.93;23.75;;;6.60;99.90;;;;;;4881920;29;20458;-79
2021/11/12 08:50:28;;;;;;;74.13;23.92;;;6.60;99.90;;;;;;4881675;29;20443;-80
2021/11/12 08:53:03;;;;;;;64.72;22.50;;;6.70;99.90;;;;;;4862088;29;20018;-79
2021/11/12 08:55:30;;;;;;;69.35;23.35;;;6.70;99.90;;;;;;4863635;29;20029;-81
2021/11/12 08:57:57;;;;;;;64.47;23.13;;;6.80;99.90;;;;;;4881767;29;20025;-79
2021/11/12 09:00:23;;;;;;;62.78;23.58;;;6.90;99.90;;;;;;4869799;29;20044;-79
2021/11/12 09:02:50;;;;;;;64.72;23.70;;;7.00;99.90;;;;;;4863664;29;20422;-78
2021/11/12 09:05:18;;;;;;;59.17;21.67;;;7.00;99.90;;;;;;4864174;29;20032;-79
2021/11/12 09:07:48;;;;;;;56.55;21.05;;;7.00;99.90;;;;;;4861131;29;20022;-78
2021/11/12 09:10:16;;;;;;;61.28;21.83;;;7.00;99.90;;;;;;4875421;29;20418;-79
2021/11/12 09:12:45;;;;;;;61.70;22.13;;;7.00;99.90;;;;;;4848575;29;20068;-82
2021/11/12 09:15:20;;;;;;;62.50;22.02;;;7.00;99.90;;;;;;4878049;29;20033;-85
2021/11/12 09:17:47;;;;;;;58.67;20.90;;;7.00;99.90;;;;;;4864660;29;20486;-85
2021/11/12 09:20:13;;;;;;;61.72;22.02;;;7.00;99.90;;;;;;4865727;29;20487;-84
2021/11/12 09:22:40;;;;;;;59.97;22.15;;;7.00;99.90;;;;;;4866979;29;20819;-85
2021/11/12 09:25:07;;;;;;;60.80;22.35;;;6.90;99.90;;;;;;4882042;29;20486;-84
2021/11/12 09:27:32;;;;;;;55.53;20.25;;;7.00;99.90;;;;;;4865348;29;20452;-86
2021/11/12 09:29:58;;;;;;;62.75;22.60;;;7.00;99.90;;;;;;4866222;29;20080;-86
2021/11/12 09:32:24;;;;;;;60.70;22.10;;;7.10;99.90;;;;;;4866303;29;20033;-87
2021/11/12 09:34:50;;;;;;;54.65;19.08;;;7.10;99.90;;;;;;4867015;29;20029;-86
2021/11/12 09:37:22;;;;;;;54.58;19.70;;;7.20;99.90;;;;;;4865775;29;20077;-86
2021/11/12 09:39:54;;;;;;;55.83;20.15;;;7.10;99.90;;;;;;4864525;29;20097;-85
2021/11/12 09:42:31;;;;;;;51.72;20.05;;;7.20;99.90;;;;;;4866963;29;20037;-86
2021/11/12 09:45:02;;;;;;;53.17;19.77;;;7.10;99.90;;;;;;4866833;29;20037;-86
2021/11/12 09:47:29;;;;;;;43.97;18.75;;;7.10;99.90;;;;;;4866142;29;20088;-85
2021/11/12 09:49:59;;;;;;;45.47;19.42;;;7.10;99.90;;;;;;4882800;29;20029;-86
2021/11/12 09:52:28;;;;;;;41.63;18.15;;;7.10;99.90;;;;;;4865926;29;20061;-85
2021/11/12 09:54:55;;;;;;;41.35;17.88;;;7.10;99.90;;;;;;4883545;29;20033;-85
2021/11/12 09:57:21;;;;;;;43.42;17.25;;;7.00;99.90;;;;;;4865612;29;20106;-86
2021/11/12 09:59:50;;;;;;;42.10;16.85;;;7.00;99.90;;;;;;4864745;29;20033;-84
2021/11/12 10:02:16;;;;;;;41.50;16.35;;;7.10;99.90;;;;;;4878987;29;20052;-86
2021/11/12 10:04:43;;;;;;;43.45;17.20;;;7.20;99.90;;;;;;4873621;29;20461;-86
2021/11/12 10:07:12;;;;;;;39.10;16.90;;;7.30;99.90;;;;;;4865843;29;20040;-87
2021/11/12 10:09:38;;;;;;;41.60;17.45;;;7.40;99.90;;;;;;4882089;29;20060;-86
2021/11/12 10:12:06;;;;;;;44.05;18.50;;;7.50;99.90;;;;;;4862812;29;20174;-86
2021/11/12 10:14:43;;;;;;;49.55;18.38;;;7.50;99.90;;;;;;4863455;29;20033;-86
2021/11/12 10:17:10;;;;;;;42.83;17.70;;;7.60;99.90;;;;;;4862168;29;20037;-85
2021/11/12 10:19:46;;;;;;;40.70;17.27;;;7.60;99.90;;;;;;4861786;29;20033;-85
2021/11/12 10:22:12;;;;;;;49.58;17.45;;;7.60;99.90;;;;;;4869774;29;20382;-85
2021/11/12 10:24:43;;;;;;;48.65;17.20;;;7.60;99.90;;;;;;4881250;29;20033;-86
2021/11/12 10:27:12;;;;;;;47.53;18.50;;;7.60;99.90;;;;;;4881782;29;20029;-86
2021/11/12 10:29:45;;;;;;;48.25;18.65;;;7.70;99.90;;;;;;4865437;29;20090;-86
2021/11/12 10:32:25;;;;;;;47.78;19.42;;;7.70;99.90;;;;;;4864389;29;20032;-86
2021/11/12 10:34:53;;;;;;;48.67;19.23;;;7.70;99.90;;;;;;4864412;29;20049;-85
2021/11/12 10:37:29;;;;;;;56.13;21.38;;;7.70;99.90;;;;;;4881902;29;20025;-87
2021/11/12 10:40:04;;;;;;;54.80;20.52;;;7.70;99.90;;;;;;4865159;29;20076;-86
2021/11/12 10:42:36;;;;;;;45.17;19.13;;;7.80;99.90;;;;;;4880637;29;20493;-86
2021/11/12 10:45:06;;;;;;;49.28;21.10;;;8.00;99.90;;;;;;4846718;29;20044;-86
2021/11/12 10:47:33;;;;;;;52.92;20.27;;;8.00;99.90;;;;;;4867215;29;20167;-85
2021/11/12 10:50:08;;;;;;;48.35;19.25;;;8.10;99.90;;;;;;4882024;29;20176;-86
2021/11/12 10:52:37;;;;;;;48.42;20.20;;;8.20;99.90;;;;;;4865037;29;20112;-89
2021/11/12 10:55:08;;;;;;;53.33;20.63;;;8.20;99.90;;;;;;4881233;29;20029;-84
2021/11/12 10:57:38;;;;;;;50.78;17.83;;;8.20;99.90;;;;;;4863549;29;20024;-86
2021/11/12 11:00:25;;;;;;;48.58;18.95;;;8.20;99.90;;;;;;4864059;29;20025;-84
2021/11/12 11:03:07;;;;;;;48.10;19.33;;;8.20;99.90;;;;;;4864141;29;20025;-86
2021/11/12 11:05:39;;;;;;;46.38;19.27;;;8.10;99.90;;;;;;4864602;29;20498;-84
2021/11/12 11:08:07;;;;;;;43.15;18.30;;;8.10;99.90;;;;;;4862694;29;20033;-86
2021/11/12 11:10:39;;;;;;;46.60;18.58;;;8.10;99.90;;;;;;4863743;29;20483;-85
2021/11/12 11:13:10;;;;;;;49.63;18.85;;;8.00;99.90;;;;;;4863991;29;20029;-85
2021/11/12 11:15:46;;;;;;;39.95;17.58;;;8.10;99.90;;;;;;4881122;29;20056;-87
2021/11/12 11:18:23;;;;;;;43.63;18.17;;;8.10;99.90;;;;;;4863722;29;20124;-86
2021/11/12 11:20:59;;;;;;;46.00;18.60;;;8.00;99.90;;;;;;4881603;29;20039;-85
2021/11/12 11:23:27;;;;;;;44.40;19.58;;;7.80;99.90;;;;;;4879408;29;20483;-86
2021/11/12 11:26:02;;;;;;;48.90;19.88;;;7.80;99.90;;;;;;4864561;29;20025;-86
2021/11/12 11:28:30;;;;;;;48.83;19.88;;;7.80;99.90;;;;;;4863835;29;20033;-85
2021/11/12 11:30:56;;;;;;;41.42;18.08;;;7.90;99.90;;;;;;4868593;29;20039;-85
2021/11/12 11:33:22;;;;;;;42.58;18.83;;;8.00;99.90;;;;;;4871185;29;20033;-85
2021/11/12 11:35:48;;;;;;;42.70;20.30;;;8.20;99.90;;;;;;4864258;29;20040;-85
2021/11/12 11:38:15;;;;;;;42.53;18.90;;;8.10;99.90;;;;;;4884346;29;20045;-86
2021/11/12 11:40:51;;;;;;;43.50;19.30;;;8.00;99.90;;;;;;4867214;29;20115;-86
2021/11/12 11:43:17;;;;;;;47.60;19.05;;;8.10;99.90;;;;;;4863695;29;20503;-86
2021/11/12 11:45:47;;;;;;;41.72;19.65;;;8.20;99.90;;;;;;4864549;29;20032;-85
2021/11/12 11:48:20;;;;;;;44.75;18.73;;;8.30;99.90;;;;;;4867837;29;20036;-85
2021/11/12 11:50:55;;;;;;;51.40;20.60;;;8.20;99.90;;;;;;4883473;29;20037;-88
2021/11/12 11:53:37;;;;;;;49.95;19.98;;;8.30;99.90;;;;;;4867655;29;20076;-85
2021/11/12 11:56:26;;;;;;;52.30;20.85;;;8.30;99.90;;;;;;4868297;29;20494;-88
2021/11/12 11:59:00;;;;;;;44.53;19.00;;;8.40;99.90;;;;;;4868221;29;20101;-85
2021/11/12 12:01:34;;;;;;;45.17;19.70;;;8.50;99.90;;;;;;4868665;29;20032;-86
2021/11/12 12:04:10;;;;;;;43.15;20.08;;;8.50;99.90;;;;;;4867945;29;20452;-85
2021/11/12 12:06:36;;;;;;;46.30;19.35;;;8.60;99.90;;;;;;4885253;29;20025;-86
2021/11/12 12:09:09;;;;;;;40.33;19.33;;;8.60;99.90;;;;;;4884148;29;20033;-90
2021/11/12 12:11:35;;;;;;;44.88;19.10;;;8.60;99.90;;;;;;4881530;29;20025;-88
2021/11/12 12:14:33;;;;;;;34.78;17.77;;;8.60;99.90;;;;;;4884924;29;20493;-87
2021/11/12 12:17:11;;;;;;;;;;;8.70;99.90;;;;;;4867927;29;20028;-87
2021/11/12 13:23:13;;;;;;;29.80;14.75;;;9.30;99.90;;;;;;4884829;29;20120;-86
2021/11/12 13:25:44;;;;;;;39.13;15.88;;;9.30;99.90;;;;;;4867917;29;20031;-86
2021/11/12 13:28:22;;;;;;;34.15;15.35;;;9.40;99.90;;;;;;4867968;29;20040;-86
2021/11/12 13:31:05;;;;;;;37.22;15.50;;;9.40;99.90;;;;;;4876763;29;20044;-85
2021/11/12 13:34:10;;;;;;;35.40;14.82;;;9.40;99.90;;;;;;4848937;29;20329;-85
2021/11/12 13:36:40;;;;;;;28.95;14.70;;;9.50;99.90;;;;;;4790935;29;20453;-86
2021/11/12 13:39:11;;;;;;;33.97;14.23;;;9.50;99.90;;;;;;4793272;29;20451;-86
2021/11/12 13:41:38;;;;;;;26.65;15.05;;;9.40;99.90;;;;;;4848652;29;20037;-84
2021/11/12 13:44:08;;;;;;;32.42;15.73;;;9.50;99.90;;;;;;4866812;29;20435;-85
2021/11/12 13:46:46;;;;;;;26.92;13.70;;;9.50;99.90;;;;;;4865833;29;20525;-87
2021/11/12 13:49:30;;;;;;;30.27;14.43;;;9.50;99.90;;;;;;4867028;29;20403;-85
2021/11/12 13:52:12;;;;;;;29.52;13.88;;;9.60;99.90;;;;;;4882989;29;20045;-85
2021/11/12 13:55:03;;;;;;;33.13;13.85;;;9.60;99.90;;;;;;4864683;29;20410;-86
2021/11/12 13:57:29;;;;;;;30.75;13.32;;;9.60;99.90;;;;;;4877144;29;20100;-86
2021/11/12 14:00:03;;;;;;;29.10;14.32;;;9.70;99.90;;;;;;4863909;29;20041;-88
2021/11/12 14:02:49;;;;;;;28.75;15.63;;;9.70;99.90;;;;;;4870007;29;20039;-87
2021/11/12 14:05:15;;;;;;;32.05;14.10;;;9.70;99.90;;;;;;4868841;29;20451;-85
2021/11/12 14:07:43;;;;;;;25.23;13.30;;;9.70;99.90;;;;;;4882044;29;20032;-89
2021/11/12 14:10:13;;;;;;;34.65;15.32;;;9.80;99.90;;;;;;4874976;29;20072;-89
2021/11/12 14:12:57;;;;;;;36.70;15.07;;;9.80;99.90;;;;;;4869021;29;20085;-90
2021/11/12 14:15:33;;;;;;;28.90;14.18;;;9.70;99.90;;;;;;4868366;29;20590;-86
2021/11/12 14:18:30;;;;;;;26.65;13.35;;;9.80;99.90;;;;;;4866917;29;20083;-86
2021/11/12 14:21:26;;;;;;;29.73;13.80;;;9.80;99.90;;;;;;4881199;29;20052;-85
2021/11/12 14:23:55;;;;;;;27.98;13.75;;;9.80;99.90;;;;;;4867563;29;20387;-88
2021/11/12 14:29:08;;;;;;;36.65;15.05;;;9.80;99.90;;;;;;4867518;29;20098;-88
2021/11/12 14:37:35;;;;;;;27.77;12.90;;;10.00;99.90;;;;;;4851706;29;20026;-90
2021/11/12 14:40:07;;;;;;;30.00;14.32;;;10.00;99.90;;;;;;4888941;29;20029;-86
2021/11/12 14:42:48;;;;;;;29.45;13.30;;;10.00;99.90;;;;;;4902838;29;20020;-86
2021/11/12 14:48:54;;;;;;;24.95;13.10;;;10.00;99.90;;;;;;4903380;29;20109;-84
2021/11/12 14:56:05;;;;;;;25.83;13.30;;;10.10;99.90;;;;;;4903817;29;20025;-88
2021/11/12 14:58:31;;;;;;;36.30;13.88;;;10.10;99.90;;;;;;4903526;29;20025;-84
2021/11/12 15:01:06;;;;;;;25.48;12.88;;;9.90;99.90;;;;;;4887006;29;20021;-87
2021/11/12 15:03:33;;;;;;;25.50;14.15;;;10.00;99.90;;;;;;4885187;29;20863;-84
2021/11/12 15:05:59;;;;;;;29.83;12.63;;;10.00;99.90;;;;;;4886039;29;20013;-83
2021/11/12 15:08:26;;;;;;;33.80;15.40;;;9.90;99.90;;;;;;4902877;29;20041;-86
2021/11/12 15:10:53;;;;;;;22.80;10.73;;;9.90;99.90;;;;;;4898110;29;20051;-83
2021/11/12 15:13:19;;;;;;;32.17;15.88;;;9.90;99.90;;;;;;4898795;29;20009;-87
2021/11/12 15:15:46;;;;;;;29.58;15.77;;;9.90;99.90;;;;;;4894268;29;20096;-86
2021/11/12 15:18:13;;;;;;;30.92;14.20;;;9.90;99.90;;;;;;4890476;29;20025;-86
2021/11/12 15:20:39;;;;;;;31.88;14.27;;;9.80;99.90;;;;;;4890968;29;20025;-85
2021/11/12 15:30:59;;;;;;;28.33;12.77;;;9.50;99.90;;;;;;4891126;29;20073;-85
2021/11/12 15:33:25;;;;;;;35.78;15.23;;;9.50;99.90;;;;;;4873258;29;20025;-86
2021/11/12 15:35:52;;;;;;;36.00;14.07;;;9.50;99.90;;;;;;4888765;29;20031;-89
2021/11/12 15:38:32;;;;;;;27.27;10.27;;;9.50;99.90;;;;;;4866739;29;20138;-88
2021/11/12 15:43:57;;;;;;;27.17;13.85;;;9.50;99.90;;;;;;4852420;29;20046;-88
2021/11/12 15:46:28;;;;;;;33.10;13.13;;;9.60;99.90;;;;;;4871426;29;20094;-89
2021/11/12 15:48:55;;;;;;;29.52;14.32;;;9.60;99.90;;;;;;4890113;29;20029;-90
2021/11/12 15:51:26;;;;;;;34.95;14.85;;;9.60;99.90;;;;;;4870707;29;20092;-88
2021/11/12 15:59:34;;;;;;;29.83;13.73;;;9.50;99.90;;;;;;4890816;29;20099;-87
2021/11/12 16:10:22;;;;;;;35.78;13.50;;;9.40;99.90;;;;;;4887498;29;20068;-89
2021/11/12 16:12:55;;;;;;;29.98;12.68;;;9.50;99.90;;;;;;4886134;29;20045;-90
2021/11/12 16:17:58;;;;;;;26.98;13.13;;;9.60;99.90;;;;;;4887107;29;20037;-87
2021/11/12 16:20:35;;;;;;;28.65;12.48;;;9.60;99.90;;;;;;4886327;29;20043;-87
2021/11/12 16:25:46;;;;;;;31.98;13.98;;;9.50;99.90;;;;;;4885424;29;20052;-88
2021/11/12 16:28:19;;;;;;;25.55;12.90;;;9.50;99.90;;;;;;4865243;29;20490;-85
2021/11/12 16:30:50;;;;;;;28.35;12.50;;;9.50;99.90;;;;;;4862849;29;20033;-85
2021/11/12 16:33:15;;;;;;;23.52;11.80;;;9.60;99.90;;;;;;4867291;29;20032;-85
2021/11/12 16:35:43;;;;;;;29.92;13.52;;;9.70;99.90;;;;;;4866553;29;20091;-86
2021/11/12 16:38:22;;;;;;;27.65;12.32;;;9.80;99.90;;;;;;4883360;29;20112;-85
2021/11/12 16:41:00;;;;;;;26.15;12.00;;;9.80;99.90;;;;;;4883004;29;20482;-86
2021/11/12 16:43:34;;;;;;;21.27;11.18;;;9.80;99.90;;;;;;4883287;29;20127;-86
2021/11/12 16:48:57;;;;;;;20.75;10.32;;;10.00;99.90;;;;;;4885521;29;20580;-86
2021/11/12 16:51:54;;;;;;;26.83;11.38;;;10.10;99.90;;;;;;4868078;29;20025;-86
2021/11/12 16:57:04;;;;;;;22.65;11.65;;;10.10;99.90;;;;;;4883192;29;20037;-86
2021/11/12 16:59:47;;;;;;;28.33;11.55;;;10.10;99.90;;;;;;4872230;29;20040;-86
2021/11/12 17:02:21;;;;;;;24.92;12.00;;;10.00;99.90;;;;;;4883100;29;20037;-85
2021/11/12 17:04:59;;;;;;;23.85;11.15;;;10.10;99.90;;;;;;4873812;29;20052;-86
2021/11/12 17:10:20;;;;;;;23.75;11.02;;;10.10;99.90;;;;;;4882993;29;20043;-86
2021/11/12 17:15:42;;;;;;;23.92;11.20;;;10.10;99.90;;;;;;4881024;29;20048;-87
2021/11/12 17:20:53;;;;;;;21.27;10.90;;;10.00;99.90;;;;;;4882567;29;20455;-86
2021/11/12 17:47:37;;;;;;;20.05;9.25;;;9.80;99.90;;;;;;4901993;29;20135;-86
2021/11/12 18:03:21;;;;;;;26.10;10.32;;;9.60;99.90;;;;;;4876921;29;20105;-88
2021/11/12 18:05:54;;;;;;;27.08;10.07;;;9.60;99.90;;;;;;4865506;29;20517;-88
2021/11/12 18:11:12;;;;;;;20.77;10.00;;;9.60;99.90;;;;;;4882949;29;20033;-87
2021/11/12 18:14:02;;;;;;;21.90;9.63;;;9.60;99.90;;;;;;4880749;29;20108;-85
2021/11/12 18:22:05;;;;;;;26.15;10.77;;;9.60;99.90;;;;;;4883271;29;20052;-87
2021/11/12 21:44:58;;;;;;;21.15;10.20;;;9.90;99.90;;;;;;4883196;29;20508;-84
2021/11/12 21:47:25;;;;;;;19.60;10.52;;;10.00;99.90;;;;;;4864948;29;20037;-84
2021/11/12 21:49:50;;;;;;;21.52;10.93;;;10.00;99.90;;;;;;4864058;29;20021;-84
2021/11/12 21:52:16;;;;;;;21.33;11.10;;;10.00;99.90;;;;;;4880751;29;20033;-85
2021/11/12 21:54:42;;;;;;;21.40;12.30;;;10.00;99.90;;;;;;4863548;29;20052;-86
2021/11/12 21:57:07;;;;;;;21.00;10.95;;;10.00;99.90;;;;;;4864610;29;20494;-83
2021/11/12 21:59:33;;;;;;;23.48;10.88;;;10.10;99.90;;;;;;4881070;29;20025;-86
2021/11/12 22:01:59;;;;;;;20.08;10.48;;;10.10;99.90;;;;;;4863755;29;20041;-84
2021/11/12 22:04:25;;;;;;;17.35;9.40;;;10.20;99.90;;;;;;4859176;29;20415;-85
2021/11/12 22:06:51;;;;;;;22.83;10.35;;;10.30;99.90;;;;;;4862226;29;20037;-85
2021/11/12 22:09:17;;;;;;;19.67;10.95;;;10.20;99.90;;;;;;4848890;29;20039;-85
2021/11/12 22:11:42;;;;;;;19.40;10.30;;;10.20;99.90;;;;;;4864327;29;20043;-85
2021/11/12 22:14:08;;;;;;;17.33;9.75;;;10.30;99.90;;;;;;4875739;29;20053;-84
2021/11/12 22:16:35;;;;;;;21.00;10.38;;;10.20;99.90;;;;;;4863629;29;20029;-83
2021/11/12 22:19:01;;;;;;;21.92;11.10;;;10.20;99.90;;;;;;4881304;29;20109;-86
2021/11/12 22:21:27;;;;;;;22.15;11.90;;;10.20;99.90;;;;;;4863540;29;20444;-83
2021/11/12 22:23:53;;;;;;;26.23;10.32;;;10.20;99.90;;;;;;4860549;29;20041;-84
2021/11/12 22:26:20;;;;;;;22.35;11.38;;;10.20;99.90;;;;;;4861109;29;20474;-87
2021/11/12 22:28:51;;;;;;;19.90;10.80;;;10.10;99.90;;;;;;4863956;29;20045;-84
2021/11/12 22:31:17;;;;;;;22.85;11.18;;;10.00;99.90;;;;;;4864011;29;20041;-86
2021/11/12 22:33:43;;;;;;;30.35;11.95;;;10.00;99.90;;;;;;4859653;29;20038;-86
2021/11/12 22:36:09;;;;;;;25.65;11.27;;;9.90;99.90;;;;;;4864955;29;20120;-86
2021/11/12 22:38:36;;;;;;;22.98;10.52;;;9.90;99.90;;;;;;4880919;29;20053;-85
2021/11/12 22:41:02;;;;;;;21.95;11.05;;;10.00;99.90;;;;;;4881061;29;20504;-86
2021/11/12 22:43:28;;;;;;;24.05;11.93;;;9.90;99.90;;;;;;4864186;29;20073;-85